Time;durP1;ratioP1;P1;durP2;ratioP2;P2;SDS_P1;SDS_P2;PMS_P1;PMS_P2;Temp;Humidity;BMP_temperature;BMP_pressure;BME280_temperature;BME280_humidity;BME280_pressure;Samples;Min_cycle;Max_cycle;Signal;HPM_P1;HPM_P2
2022/05/17 00:00:41;;;;;;;7.78;4.63;;;;;;;;;;4974794;28;20050;-83
2022/05/17 00:03:07;;;;;;;6.82;4.20;;;;;;;;;;4993525;28;20401;-82
2022/05/17 00:05:36;;;;;;;11.15;6.00;;;;;;;;;;4994120;28;20022;-81
2022/05/17 00:08:02;;;;;;;8.13;4.63;;;;;;;;;;4993807;28;20112;-82
2022/05/17 00:10:28;;;;;;;8.65;4.70;;;;;;;;;;4994035;28;20030;-82
2022/05/17 00:12:55;;;;;;;10.70;4.45;;;;;;;;;;4993789;28;20018;-82
2022/05/17 00:15:22;;;;;;;9.30;4.65;;;;;;;;;;4993848;28;20097;-82
2022/05/17 00:17:48;;;;;;;6.78;4.40;;;;;;;;;;4993696;28;20065;-83
2022/05/17 00:20:15;;;;;;;7.13;3.35;;;;;;;;;;4993685;28;20045;-82
2022/05/17 00:22:43;;;;;;;6.38;3.80;;;;;;;;;;4992486;28;20054;-82
2022/05/17 00:25:11;;;;;;;5.35;3.60;;;;;;;;;;4993595;28;20030;-82
2022/05/17 00:27:37;;;;;;;5.43;3.30;;;;;;;;;;4993785;28;20551;-82
2022/05/17 00:30:07;;;;;;;3.72;2.60;;;;;;;;;;4993375;28;20048;-82
2022/05/17 00:32:33;;;;;;;6.38;3.30;;;;;;;;;;4992370;28;20047;-82
2022/05/17 00:34:59;;;;;;;3.75;2.88;;;;;;;;;;4993447;28;20030;-82
2022/05/17 00:37:27;;;;;;;4.70;3.10;;;;;;;;;;4993404;28;20038;-82
2022/05/17 00:39:54;;;;;;;6.63;2.47;;;;;;;;;;4992263;28;20377;-82
2022/05/17 00:42:20;;;;;;;6.00;3.25;;;;;;;;;;4993403;28;20034;-82
2022/05/17 00:44:46;;;;;;;5.65;2.97;;;;;;;;;;4992033;28;20084;-82
2022/05/17 00:47:29;;;;;;;5.07;3.33;;;;;;;;;;4993209;28;20029;-82
2022/05/17 00:49:58;;;;;;;5.45;3.38;;;;;;;;;;4993342;28;20101;-82
2022/05/17 00:52:26;;;;;;;4.55;3.20;;;;;;;;;;4993269;28;20027;-82
2022/05/17 00:54:53;;;;;;;5.68;3.58;;;;;;;;;;4993121;28;20018;-82
2022/05/17 00:57:32;;;;;;;5.65;3.80;;;;;;;;;;4993000;28;20069;-82
2022/05/17 01:00:00;;;;;;;3.78;3.00;;;;;;;;;;4993203;28;20535;-82
2022/05/17 01:02:28;;;;;;;4.88;3.40;;;;;;;;;;4993482;28;20026;-82
2022/05/17 01:04:54;;;;;;;4.13;3.42;;;;;;;;;;4993161;28;20058;-82
2022/05/17 01:07:22;;;;;;;3.92;2.80;;;;;;;;;;4993021;28;20085;-82
2022/05/17 01:09:48;;;;;;;4.30;3.40;;;;;;;;;;4991805;28;20387;-82
2022/05/17 01:12:14;;;;;;;4.57;3.40;;;;;;;;;;4993165;28;20058;-82
2022/05/17 01:15:00;;;;;;;3.63;3.00;;;;;;;;;;4992870;28;20027;-82
2022/05/17 01:17:35;;;;;;;4.60;3.13;;;;;;;;;;4992752;28;20088;-82
2022/05/17 01:20:08;;;;;;;4.22;3.10;;;;;;;;;;4992920;28;20030;-82
2022/05/17 01:22:34;;;;;;;5.53;3.00;;;;;;;;;;4993016;28;20171;-82
2022/05/17 01:25:01;;;;;;;5.20;3.47;;;;;;;;;;4991664;28;20026;-82
2022/05/17 01:27:30;;;;;;;6.20;3.70;;;;;;;;;;4992929;28;20050;-82
2022/05/17 01:29:57;;;;;;;5.38;3.67;;;;;;;;;;4992906;28;20393;-82
2022/05/17 01:32:23;;;;;;;4.22;3.40;;;;;;;;;;4992800;28;20030;-81
2022/05/17 01:34:50;;;;;;;5.05;3.60;;;;;;;;;;4992897;28;20026;-82
2022/05/17 01:37:16;;;;;;;5.35;3.35;;;;;;;;;;4992640;28;20480;-81
2022/05/17 01:39:44;;;;;;;6.57;3.33;;;;;;;;;;4992844;28;20022;-82
2022/05/17 01:42:14;;;;;;;4.32;3.13;;;;;;;;;;4992643;28;20033;-82
2022/05/17 01:44:43;;;;;;;4.75;3.42;;;;;;;;;;4992797;28;20445;-82
2022/05/17 01:47:10;;;;;;;5.95;3.60;;;;;;;;;;4992555;28;20053;-82
2022/05/17 01:49:36;;;;;;;5.68;3.40;;;;;;;;;;4992750;28;20027;-82
2022/05/17 01:52:03;;;;;;;5.10;3.33;;;;;;;;;;4992634;28;20065;-82
2022/05/17 01:54:29;;;;;;;4.07;3.67;;;;;;;;;;4992669;28;20035;-82
2022/05/17 01:56:55;;;;;;;4.50;3.40;;;;;;;;;;4992586;28;20034;-82
2022/05/17 01:59:21;;;;;;;4.05;3.53;;;;;;;;;;4992534;28;20034;-82
2022/05/17 02:01:48;;;;;;;5.72;4.13;;;;;;;;;;4992681;28;20381;-82
2022/05/17 02:04:14;;;;;;;4.38;3.63;;;;;;;;;;4990988;28;20069;-82
2022/05/17 02:06:42;;;;;;;4.78;3.42;;;;;;;;;;4992715;28;20030;-81
2022/05/17 02:09:08;;;;;;;4.78;3.80;;;;;;;;;;4991054;28;20026;-82
2022/05/17 02:11:34;;;;;;;4.32;3.92;;;;;;;;;;4992515;28;20467;-82
2022/05/17 02:14:01;;;;;;;4.45;3.67;;;;;;;;;;4992522;28;20038;-82
2022/05/17 02:16:27;;;;;;;4.22;3.78;;;;;;;;;;4993705;28;20493;-82
2022/05/17 02:19:03;;;;;;;4.15;3.20;;;;;;;;;;4996128;28;20028;-82
2022/05/17 02:21:29;;;;;;;4.75;3.72;;;;;;;;;;4994704;28;20034;-82
2022/05/17 02:23:57;;;;;;;4.47;3.70;;;;;;;;;;4995928;28;20089;-82
2022/05/17 02:26:23;;;;;;;6.05;3.97;;;;;;;;;;4996088;28;20027;-82
2022/05/17 02:28:49;;;;;;;5.38;3.67;;;;;;;;;;4998349;28;20422;-81
2022/05/17 02:31:17;;;;;;;6.18;3.88;;;;;;;;;;4996806;28;20030;-82
2022/05/17 02:33:43;;;;;;;6.72;3.58;;;;;;;;;;4995808;28;20034;-82
2022/05/17 02:36:09;;;;;;;6.13;3.78;;;;;;;;;;4995575;28;20477;-82
2022/05/17 02:38:35;;;;;;;6.30;3.70;;;;;;;;;;4995678;28;20397;-82
2022/05/17 02:41:02;;;;;;;5.35;3.45;;;;;;;;;;4994301;28;20031;-82
2022/05/17 02:43:28;;;;;;;5.28;3.85;;;;;;;;;;4995419;28;20026;-82
2022/05/17 02:45:54;;;;;;;5.93;4.05;;;;;;;;;;4995637;28;20161;-82
2022/05/17 02:48:20;;;;;;;8.52;4.85;;;;;;;;;;4995359;28;20069;-82
2022/05/17 02:50:46;;;;;;;6.28;3.70;;;;;;;;;;4995433;28;20034;-82
2022/05/17 02:53:12;;;;;;;5.15;4.00;;;;;;;;;;4995259;28;20029;-82
2022/05/17 02:55:38;;;;;;;4.47;4.00;;;;;;;;;;4995320;28;20034;-82
2022/05/17 02:58:04;;;;;;;6.03;4.00;;;;;;;;;;4995191;28;20034;-82
2022/05/17 03:00:32;;;;;;;4.72;4.30;;;;;;;;;;4995309;28;20049;-82
2022/05/17 03:02:58;;;;;;;7.10;4.53;;;;;;;;;;4995221;28;20062;-81
2022/05/17 03:05:24;;;;;;;5.18;4.50;;;;;;;;;;4994842;28;20055;-81
2022/05/17 03:07:51;;;;;;;6.25;4.10;;;;;;;;;;4995256;28;20026;-82
2022/05/17 03:10:21;;;;;;;5.60;3.80;;;;;;;;;;4994960;28;20022;-82
2022/05/17 03:12:48;;;;;;;8.38;4.10;;;;;;;;;;4995097;28;20030;-82
2022/05/17 03:15:17;;;;;;;9.75;5.28;;;;;;;;;;4994791;28;20504;-82
2022/05/17 03:17:46;;;;;;;5.35;4.47;;;;;;;;;;4994943;28;20034;-83
2022/05/17 03:20:12;;;;;;;6.57;4.25;;;;;;;;;;4994898;28;20026;-83
2022/05/17 03:22:38;;;;;;;6.57;4.07;;;;;;;;;;4994884;28;20022;-82
2022/05/17 03:25:04;;;;;;;5.28;3.88;;;;;;;;;;4994815;28;20030;-82
2022/05/17 03:27:30;;;;;;;4.60;3.90;;;;;;;;;;4994480;28;20041;-82
2022/05/17 03:29:57;;;;;;;5.15;3.80;;;;;;;;;;4994815;28;20113;-82
2022/05/17 03:32:24;;;;;;;6.15;3.80;;;;;;;;;;4994646;28;20444;-82
2022/05/17 03:34:50;;;;;;;5.68;4.18;;;;;;;;;;4994729;28;20026;-82
2022/05/17 03:37:16;;;;;;;5.97;3.70;;;;;;;;;;4994384;28;20038;-81
2022/05/17 03:39:42;;;;;;;7.70;4.68;;;;;;;;;;4994509;28;20527;-82
2022/05/17 03:42:09;;;;;;;6.68;4.68;;;;;;;;;;4994385;28;20037;-82
2022/05/17 03:44:38;;;;;;;10.02;4.45;;;;;;;;;;4993226;28;20038;-81
2022/05/17 03:47:06;;;;;;;6.70;4.18;;;;;;;;;;4994361;28;20057;-82
2022/05/17 03:49:32;;;;;;;5.90;4.03;;;;;;;;;;4993369;28;20032;-81
2022/05/17 03:51:58;;;;;;;5.25;3.90;;;;;;;;;;4994502;28;20044;-82
2022/05/17 03:54:25;;;;;;;5.28;3.70;;;;;;;;;;4994053;28;20473;-82
2022/05/17 03:56:52;;;;;;;5.28;4.10;;;;;;;;;;4994364;28;20061;-81
2022/05/17 03:59:18;;;;;;;5.15;4.10;;;;;;;;;;4994015;28;20054;-82
2022/05/17 04:01:44;;;;;;;6.35;4.28;;;;;;;;;;4994076;28;20135;-82
2022/05/17 04:04:15;;;;;;;7.50;4.22;;;;;;;;;;4993844;28;20050;-83
2022/05/17 04:06:42;;;;;;;8.38;4.18;;;;;;;;;;4992626;28;20022;-82
2022/05/17 04:09:11;;;;;;;7.38;5.20;;;;;;;;;;4992997;28;20080;-82
2022/05/17 04:11:37;;;;;;;11.38;6.38;;;;;;;;;;4993541;28;20054;-81
2022/05/17 04:17:09;;;;;;;7.05;5.47;;;;;;;;;;4974323;28;20458;-81
2022/05/17 04:19:37;;;;;;;6.47;4.72;;;;;;;;;;4974243;28;20417;-84
2022/05/17 04:22:07;;;;;;;5.85;4.40;;;;;;;;;;4974457;28;20031;-83
2022/05/17 04:24:33;;;;;;;8.45;6.55;;;;;;;;;;4974139;28;20031;-84
2022/05/17 04:26:59;;;;;;;7.40;5.10;;;;;;;;;;4973018;28;20043;-84
2022/05/17 04:29:28;;;;;;;6.35;4.10;;;;;;;;;;4974224;28;20110;-83
2022/05/17 04:31:54;;;;;;;6.72;4.25;;;;;;;;;;4974263;28;20042;-79
2022/05/17 04:34:20;;;;;;;6.25;4.32;;;;;;;;;;4976768;28;20230;-81
2022/05/17 04:36:46;;;;;;;6.28;3.95;;;;;;;;;;4977352;28;20067;-87
2022/05/17 04:39:15;;;;;;;6.93;3.97;;;;;;;;;;4974009;28;20097;-85
2022/05/17 04:41:43;;;;;;;4.65;4.18;;;;;;;;;;4974933;28;20039;-86
2022/05/17 04:44:10;;;;;;;10.10;4.43;;;;;;;;;;4978460;28;20034;-84
2022/05/17 04:46:36;;;;;;;6.38;4.00;;;;;;;;;;4975956;28;20037;-82
2022/05/17 04:49:07;;;;;;;5.15;3.80;;;;;;;;;;4976186;28;20465;-86
2022/05/17 04:51:34;;;;;;;5.00;3.60;;;;;;;;;;4975713;28;20030;-82
2022/05/17 04:54:00;;;;;;;22.30;5.07;;;;;;;;;;4977243;28;20437;-83
2022/05/17 04:56:34;;;;;;;5.68;3.25;;;;;;;;;;4978007;28;20034;-79
2022/05/17 04:59:02;;;;;;;5.80;4.00;;;;;;;;;;4976769;28;20058;-84
2022/05/17 05:01:28;;;;;;;4.93;3.85;;;;;;;;;;4976866;28;20493;-80
2022/05/17 05:03:57;;;;;;;7.60;3.90;;;;;;;;;;4990662;28;20062;-84
2022/05/17 05:06:23;;;;;;;8.65;4.13;;;;;;;;;;4974955;28;20035;-81
2022/05/17 05:08:49;;;;;;;6.28;3.83;;;;;;;;;;4986693;28;20112;-80
2022/05/17 05:11:15;;;;;;;12.43;4.47;;;;;;;;;;5013858;28;20030;-88
2022/05/17 05:13:41;;;;;;;3.95;3.15;;;;;;;;;;5012656;28;20030;-86
2022/05/17 05:16:11;;;;;;;4.00;3.03;;;;;;;;;;5011781;28;20041;-79
2022/05/17 05:18:45;;;;;;;6.13;4.15;;;;;;;;;;5012827;28;20109;-85
2022/05/17 05:21:14;;;;;;;5.03;3.90;;;;;;;;;;5006811;28;20026;-80
2022/05/17 05:23:41;;;;;;;4.38;3.65;;;;;;;;;;4995056;28;20095;-85
2022/05/17 05:26:08;;;;;;;4.82;3.42;;;;;;;;;;4993228;28;20094;-85
2022/05/17 05:28:35;;;;;;;8.48;6.38;;;;;;;;;;4990310;28;20023;-89
2022/05/17 05:31:03;;;;;;;5.68;4.30;;;;;;;;;;4991085;28;20045;-89
2022/05/17 05:33:31;;;;;;;7.20;4.40;;;;;;;;;;4992781;28;20026;-89
2022/05/17 05:35:57;;;;;;;7.70;4.88;;;;;;;;;;4990399;28;20041;-88
2022/05/17 05:38:23;;;;;;;5.10;4.38;;;;;;;;;;4991397;28;20042;-83
2022/05/17 05:40:49;;;;;;;7.60;4.78;;;;;;;;;;4978970;28;20027;-80
2022/05/17 05:43:18;;;;;;;12.98;11.57;;;;;;;;;;4986314;28;20114;-83
2022/05/17 05:45:44;;;;;;;14.73;9.52;;;;;;;;;;4991918;28;20030;-84
2022/05/17 05:48:10;;;;;;;10.82;8.15;;;;;;;;;;4991394;28;20073;-84
2022/05/17 05:50:37;;;;;;;10.18;6.43;;;;;;;;;;4981833;28;20026;-82
2022/05/17 05:53:25;;;;;;;44.13;20.52;;;;;;;;;;4988250;28;20046;-82
2022/05/17 05:55:57;;;;;;;20.73;8.70;;;;;;;;;;4994560;28;20068;-82
2022/05/17 05:58:23;;;;;;;17.40;8.10;;;;;;;;;;4985341;28;20033;-83
2022/05/17 06:00:49;;;;;;;15.55;7.65;;;;;;;;;;4990815;28;20030;-83
2022/05/17 06:03:16;;;;;;;8.63;4.53;;;;;;;;;;4994788;28;20034;-83
2022/05/17 06:05:42;;;;;;;12.95;4.95;;;;;;;;;;4991498;28;20059;-81
2022/05/17 06:08:13;;;;;;;5.40;3.50;;;;;;;;;;4975099;28;20031;-82
2022/05/17 06:10:41;;;;;;;8.02;4.15;;;;;;;;;;4989333;28;20092;-84
2022/05/17 06:13:08;;;;;;;10.23;4.43;;;;;;;;;;4988446;28;20067;-82
2022/05/17 06:15:34;;;;;;;7.82;3.80;;;;;;;;;;4983852;28;20038;-83
2022/05/17 06:18:01;;;;;;;6.20;3.45;;;;;;;;;;4993392;28;20050;-84
2022/05/17 06:20:27;;;;;;;5.18;3.33;;;;;;;;;;4994806;28;20034;-82
2022/05/17 06:22:53;;;;;;;5.43;3.42;;;;;;;;;;4993008;28;20092;-85
2022/05/17 06:25:19;;;;;;;21.33;8.85;;;;;;;;;;4994138;28;20409;-83
2022/05/17 06:27:46;;;;;;;67.90;25.20;;;;;;;;;;4990788;28;20380;-80
2022/05/17 06:30:12;;;;;;;61.70;24.95;;;;;;;;;;4990513;28;20092;-81
2022/05/17 06:32:38;;;;;;;152.90;55.25;;;;;;;;;;4990184;28;20489;-82
2022/05/17 06:35:04;;;;;;;106.70;40.17;;;;;;;;;;4992822;28;20045;-81
2022/05/17 06:37:30;;;;;;;131.57;46.25;;;;;;;;;;4986072;28;20062;-79
2022/05/17 06:39:57;;;;;;;76.28;27.58;;;;;;;;;;4992807;28;20390;-73
2022/05/17 06:42:23;;;;;;;76.78;29.35;;;;;;;;;;4991413;28;20030;-82
2022/05/17 06:44:49;;;;;;;49.17;19.92;;;;;;;;;;4989105;28;20142;-79
2022/05/17 06:47:16;;;;;;;35.70;14.60;;;;;;;;;;4996395;28;20108;-79
2022/05/17 06:49:42;;;;;;;38.40;16.35;;;;;;;;;;4998221;28;20037;-82
2022/05/17 06:52:08;;;;;;;25.80;11.40;;;;;;;;;;4994142;28;20034;-82
2022/05/17 06:54:35;;;;;;;23.33;15.40;;;;;;;;;;5013028;28;20034;-85
2022/05/17 06:57:06;;;;;;;18.75;11.38;;;;;;;;;;5005659;28;20045;-80
2022/05/17 06:59:47;;;;;;;20.45;12.40;;;;;;;;;;4994335;28;20038;-87
2022/05/17 07:02:14;;;;;;;19.85;11.15;;;;;;;;;;4991163;28;20485;-82
2022/05/17 07:04:40;;;;;;;29.98;8.88;;;;;;;;;;4992882;28;20133;-81
2022/05/17 07:07:07;;;;;;;9.07;5.43;;;;;;;;;;4993854;28;20481;-81
2022/05/17 07:09:33;;;;;;;10.15;6.30;;;;;;;;;;5000749;28;20045;-84
2022/05/17 07:14:44;;;;;;;38.25;15.30;;;;;;;;;;4974233;28;20050;-83
2022/05/17 07:17:12;;;;;;;100.35;34.92;;;;;;;;;;4973715;28;20038;-81
2022/05/17 07:19:38;;;;;;;55.35;18.67;;;;;;;;;;4973689;28;20031;-82
2022/05/17 07:22:06;;;;;;;145.70;49.90;;;;;;;;;;4985931;28;20026;-81
2022/05/17 07:24:32;;;;;;;126.15;44.55;;;;;;;;;;4973292;28;20080;-85
2022/05/17 07:26:59;;;;;;;86.82;31.05;;;;;;;;;;4985575;28;20081;-81
2022/05/17 07:29:26;;;;;;;86.93;33.28;;;;;;;;;;4985227;28;20105;-81
2022/05/17 07:34:39;;;;;;;79.85;31.50;;;;;;;;;;5000358;28;20077;-81
2022/05/17 07:37:08;;;;;;;53.45;21.52;;;;;;;;;;4992844;28;20053;-84
2022/05/17 07:43:03;;;;;;;;;;;;;;;;;;;;;
2022/05/17 07:45:29;;;;;;;25.73;12.02;;;;;;;;;;4980668;28;20037;-86
2022/05/17 07:49:08;;;;;;;;;;;;;;;;;;;;;
2022/05/17 07:51:16;;;;;;;21.33;11.10;;;;;;;;;;4975960;28;20039;-84
2022/05/17 07:53:54;;;;;;;15.55;8.40;;;;;;;;;;4986523;28;20851;-80
2022/05/17 07:56:20;;;;;;;9.32;5.05;;;;;;;;;;4990465;28;20037;-83
2022/05/17 07:58:46;;;;;;;8.00;4.45;;;;;;;;;;4990715;28;20029;-80
2022/05/17 08:01:22;;;;;;;7.53;4.32;;;;;;;;;;4990948;28;20089;-82
2022/05/17 08:03:48;;;;;;;5.90;3.65;;;;;;;;;;4990991;28;20058;-82
2022/05/17 08:06:14;;;;;;;8.38;4.30;;;;;;;;;;4992884;28;20031;-82
2022/05/17 08:08:40;;;;;;;11.80;4.38;;;;;;;;;;4992552;28;20073;-82
2022/05/17 08:11:09;;;;;;;8.40;4.07;;;;;;;;;;4992584;28;20037;-80
2022/05/17 08:13:38;;;;;;;6.15;3.85;;;;;;;;;;4991315;28;20034;-81
2022/05/17 08:16:04;;;;;;;4.50;3.10;;;;;;;;;;4993097;28;20077;-80
2022/05/17 08:18:31;;;;;;;6.57;3.15;;;;;;;;;;4992422;28;20053;-80
2022/05/17 08:20:57;;;;;;;8.23;4.55;;;;;;;;;;4992145;28;20032;-78
2022/05/17 08:23:23;;;;;;;4.47;3.47;;;;;;;;;;4992538;28;20105;-80
2022/05/17 08:28:34;;;;;;;3.45;2.80;;;;;;;;;;4991823;28;20130;-81
2022/05/17 08:31:00;;;;;;;10.52;6.28;;;;;;;;;;4992034;28;20026;-82
2022/05/17 08:33:26;;;;;;;28.40;9.77;;;;;;;;;;4992427;28;20026;-81
2022/05/17 08:35:54;;;;;;;35.20;13.57;;;;;;;;;;4991618;28;20022;-80
2022/05/17 08:38:38;;;;;;;64.05;22.52;;;;;;;;;;4989624;28;20027;-81
2022/05/17 08:41:23;;;;;;;70.75;23.55;;;;;;;;;;4982188;28;20026;-80
2022/05/17 08:44:00;;;;;;;85.72;27.23;;;;;;;;;;4977827;28;20066;-82
2022/05/17 08:46:45;;;;;;;92.55;30.25;;;;;;;;;;4980284;28;20747;-80
2022/05/17 08:49:31;;;;;;;95.05;32.17;;;;;;;;;;4991602;28;20027;-81
2022/05/17 08:51:57;;;;;;;65.95;23.98;;;;;;;;;;4993212;28;20833;-80
2022/05/17 08:54:27;;;;;;;237.27;78.50;;;;;;;;;;4990347;28;20064;-80
2022/05/17 08:57:12;;;;;;;30.45;10.63;;;;;;;;;;4996900;28;20065;-83
2022/05/17 08:59:38;;;;;;;103.78;38.30;;;;;;;;;;4971388;28;20027;-81
2022/05/17 09:02:12;;;;;;;62.33;33.55;;;;;;;;;;4972725;28;20130;-83
2022/05/17 09:04:44;;;;;;;14.05;7.82;;;;;;;;;;4972531;28;20059;-82
2022/05/17 09:07:17;;;;;;;25.92;13.07;;;;;;;;;;4976422;28;20046;-82
2022/05/17 09:09:43;;;;;;;26.27;14.00;;;;;;;;;;4985698;28;20061;-83
2022/05/17 09:12:31;;;;;;;19.05;9.25;;;;;;;;;;4991241;28;20034;-85
2022/05/17 09:14:59;;;;;;;14.45;8.43;;;;;;;;;;4990396;28;20113;-81
2022/05/17 09:17:26;;;;;;;13.38;6.85;;;;;;;;;;4991673;28;20054;-83
2022/05/17 09:19:53;;;;;;;190.15;75.82;;;;;;;;;;4991798;28;20041;-81
2022/05/17 09:22:22;;;;;;;166.32;68.10;;;;;;;;;;4990272;28;20034;-83
2022/05/17 09:25:15;;;;;;;70.30;29.58;;;;;;;;;;4972687;28;20031;-78
2022/05/17 09:27:41;;;;;;;93.78;38.10;;;;;;;;;;4972750;28;20441;-78
2022/05/17 09:30:11;;;;;;;70.85;30.65;;;;;;;;;;4975481;28;20038;-80
2022/05/17 09:32:44;;;;;;;26.00;10.45;;;;;;;;;;4976413;28;20081;-78
2022/05/17 09:35:20;;;;;;;31.40;13.25;;;;;;;;;;4976019;28;20054;-81
2022/05/17 09:37:50;;;;;;;18.30;8.40;;;;;;;;;;4975939;28;20038;-79
2022/05/17 09:40:22;;;;;;;40.67;17.02;;;;;;;;;;4995280;28;20034;-81
2022/05/17 09:42:52;;;;;;;33.92;13.95;;;;;;;;;;4995361;28;20033;-79
2022/05/17 09:45:20;;;;;;;18.25;7.50;;;;;;;;;;4995449;28;20125;-80
2022/05/17 09:47:55;;;;;;;21.48;6.75;;;;;;;;;;4985724;28;20376;-81
2022/05/17 09:53:14;;;;;;;9.07;5.07;;;;;;;;;;4984528;28;20104;-78
2022/05/17 09:55:43;;;;;;;7.60;3.88;;;;;;;;;;4993129;28;20030;-84
2022/05/17 09:58:28;;;;;;;10.45;4.57;;;;;;;;;;5006235;28;20042;-82
2022/05/17 10:00:54;;;;;;;48.30;18.40;;;;;;;;;;5012907;28;20029;-83
2022/05/17 10:03:29;;;;;;;36.30;14.20;;;;;;;;;;4993186;28;20126;-82
2022/05/17 10:06:16;;;;;;;126.78;47.63;;;;;;;;;;4994689;28;20074;-79
2022/05/17 10:09:04;;;;;;;36.80;15.45;;;;;;;;;;4994865;28;20034;-82
2022/05/17 10:11:41;;;;;;;10.95;4.55;;;;;;;;;;4988472;28;20045;-84
2022/05/17 10:14:22;;;;;;;9.40;4.18;;;;;;;;;;4995559;28;20519;-83
2022/05/17 10:16:54;;;;;;;14.02;9.27;;;;;;;;;;4996858;28;20038;-81
2022/05/17 10:19:37;;;;;;;6.13;3.10;;;;;;;;;;4993944;28;20045;-85
2022/05/17 10:22:24;;;;;;;14.75;6.22;;;;;;;;;;4992404;28;20161;-82
2022/05/17 10:25:11;;;;;;;8.43;4.25;;;;;;;;;;4993741;28;20125;-83
2022/05/17 10:27:43;;;;;;;21.08;9.18;;;;;;;;;;4979998;28;20031;-82
2022/05/17 10:30:15;;;;;;;24.27;9.07;;;;;;;;;;4993858;28;20030;-81
2022/05/17 10:32:50;;;;;;;6.40;3.83;;;;;;;;;;4985176;28;20031;-84
2022/05/17 10:35:28;;;;;;;10.25;6.43;;;;;;;;;;4974336;28;20535;-81
2022/05/17 10:37:57;;;;;;;28.40;12.55;;;;;;;;;;4973253;28;20037;-82
2022/05/17 10:40:34;;;;;;;24.15;10.45;;;;;;;;;;4992259;28;20639;-81
2022/05/17 10:43:02;;;;;;;5.60;3.17;;;;;;;;;;4990247;28;20053;-83
2022/05/17 10:45:33;;;;;;;17.73;4.63;;;;;;;;;;4983662;28;20093;-82
2022/05/17 10:48:23;;;;;;;6.18;3.20;;;;;;;;;;4976882;28;20034;-83
2022/05/17 10:51:01;;;;;;;19.48;8.20;;;;;;;;;;4992078;28;20085;-79
2022/05/17 10:53:27;;;;;;;4.60;3.13;;;;;;;;;;4994286;28;20030;-82
2022/05/17 10:55:53;;;;;;;7.90;3.92;;;;;;;;;;5013435;28;20061;-83
2022/05/17 10:58:48;;;;;;;8.23;3.92;;;;;;;;;;5006016;28;20056;-82
2022/05/17 11:01:14;;;;;;;5.80;2.78;;;;;;;;;;4992800;28;20034;-80
2022/05/17 11:03:40;;;;;;;5.70;3.40;;;;;;;;;;4993180;28;20042;-79
2022/05/17 11:06:21;;;;;;;5.13;2.97;;;;;;;;;;4978106;28;20034;-79
2022/05/17 11:08:52;;;;;;;5.72;2.55;;;;;;;;;;4987265;28;20049;-83
2022/05/17 11:11:34;;;;;;;8.68;3.72;;;;;;;;;;4993828;28;20034;-80
2022/05/17 11:14:13;;;;;;;8.48;4.88;;;;;;;;;;4993554;28;20109;-82
2022/05/17 11:16:50;;;;;;;4.30;2.90;;;;;;;;;;4991088;28;20488;-80
2022/05/17 11:19:33;;;;;;;4.60;2.92;;;;;;;;;;4988422;28;20026;-81
2022/05/17 11:22:12;;;;;;;13.43;4.40;;;;;;;;;;4995730;28;20128;-79
2022/05/17 11:24:42;;;;;;;5.70;3.47;;;;;;;;;;4975627;28;20049;-77
2022/05/17 11:27:09;;;;;;;4.10;2.53;;;;;;;;;;4992276;28;20037;-80
2022/05/17 11:29:44;;;;;;;8.40;4.03;;;;;;;;;;4990113;28;20038;-80
2022/05/17 11:32:30;;;;;;;3.55;2.38;;;;;;;;;;4987964;28;20041;-79
2022/05/17 11:34:57;;;;;;;3.50;2.60;;;;;;;;;;4987946;28;20037;-83
2022/05/17 11:37:41;;;;;;;5.97;2.40;;;;;;;;;;4992661;28;20038;-78
2022/05/17 11:40:09;;;;;;;3.28;2.33;;;;;;;;;;4993472;28;20032;-79
2022/05/17 11:42:36;;;;;;;4.78;2.72;;;;;;;;;;4993410;28;20026;-79
2022/05/17 11:45:22;;;;;;;5.38;3.17;;;;;;;;;;4993512;28;20030;-80
2022/05/17 11:47:53;;;;;;;5.57;2.72;;;;;;;;;;4993222;28;20023;-79
2022/05/17 11:50:42;;;;;;;4.10;2.25;;;;;;;;;;4993718;28;20029;-80
2022/05/17 11:53:27;;;;;;;7.90;2.70;;;;;;;;;;4993598;28;20050;-80
2022/05/17 11:56:12;;;;;;;41.35;17.67;;;;;;;;;;4992907;28;20381;-81
2022/05/17 11:58:39;;;;;;;7.88;4.10;;;;;;;;;;4992658;28;20549;-78
2022/05/17 12:01:24;;;;;;;5.25;2.83;;;;;;;;;;4994124;28;20027;-80
2022/05/17 12:03:51;;;;;;;11.85;6.53;;;;;;;;;;4993470;28;20058;-79
2022/05/17 12:06:39;;;;;;;13.20;5.20;;;;;;;;;;4993800;28;20023;-78
2022/05/17 12:09:14;;;;;;;6.55;3.25;;;;;;;;;;4993734;28;20061;-78
2022/05/17 12:12:01;;;;;;;22.83;8.85;;;;;;;;;;4993192;28;20473;-78
2022/05/17 12:14:30;;;;;;;37.45;14.73;;;;;;;;;;4986651;28;20481;-79
2022/05/17 12:17:13;;;;;;;9.73;5.60;;;;;;;;;;4993421;28;20041;-79
2022/05/17 12:19:58;;;;;;;6.38;3.50;;;;;;;;;;4993334;28;20037;-80
2022/05/17 12:22:32;;;;;;;6.45;4.05;;;;;;;;;;4993416;28;20034;-80
2022/05/17 12:25:10;;;;;;;4.72;2.85;;;;;;;;;;4993585;28;20037;-79
2022/05/17 12:27:40;;;;;;;13.25;6.00;;;;;;;;;;4993064;28;20027;-80
2022/05/17 12:33:03;;;;;;;11.70;5.97;;;;;;;;;;4994012;28;20467;-79
2022/05/17 12:35:30;;;;;;;9.32;5.13;;;;;;;;;;4991931;28;20034;-81
2022/05/17 12:37:57;;;;;;;6.90;2.95;;;;;;;;;;4993298;28;20034;-81
2022/05/17 12:43:22;;;;;;;10.95;5.05;;;;;;;;;;4973760;28;20046;-80
2022/05/17 12:45:49;;;;;;;5.38;3.17;;;;;;;;;;4973811;28;20041;-81
2022/05/17 12:48:24;;;;;;;5.30;3.20;;;;;;;;;;4973479;28;20034;-79
2022/05/17 12:50:52;;;;;;;4.30;2.63;;;;;;;;;;4973648;28;20043;-78
2022/05/17 12:53:27;;;;;;;5.82;2.53;;;;;;;;;;4973634;28;20023;-81
2022/05/17 12:56:03;;;;;;;5.15;2.80;;;;;;;;;;4973631;28;20624;-78
2022/05/17 12:58:30;;;;;;;4.00;2.50;;;;;;;;;;4971501;28;20385;-81
2022/05/17 13:00:58;;;;;;;7.28;3.00;;;;;;;;;;4971835;28;20491;-78
2022/05/17 13:03:26;;;;;;;3.65;2.80;;;;;;;;;;4976862;28;20031;-80
2022/05/17 13:05:53;;;;;;;12.05;5.93;;;;;;;;;;4978410;28;20145;-80
2022/05/17 13:08:23;;;;;;;6.93;3.78;;;;;;;;;;4980502;28;20019;-81
2022/05/17 13:11:02;;;;;;;9.43;5.07;;;;;;;;;;4985532;28;20030;-80
2022/05/17 13:13:28;;;;;;;4.22;2.78;;;;;;;;;;4992300;28;20036;-80
2022/05/17 13:16:14;;;;;;;6.50;3.40;;;;;;;;;;4992626;28;20465;-81
2022/05/17 13:18:44;;;;;;;4.90;3.38;;;;;;;;;;4992033;28;20481;-78
2022/05/17 13:21:14;;;;;;;4.85;2.72;;;;;;;;;;4992078;28;20054;-78
2022/05/17 13:23:40;;;;;;;2.45;2.22;;;;;;;;;;4992347;28;20073;-78
2022/05/17 13:26:06;;;;;;;5.75;3.10;;;;;;;;;;4992615;28;20454;-81
2022/05/17 13:28:33;;;;;;;3.13;2.20;;;;;;;;;;4990708;28;20060;-81
2022/05/17 13:31:14;;;;;;;7.07;2.55;;;;;;;;;;4991348;28;20428;-81
2022/05/17 13:33:41;;;;;;;4.03;2.42;;;;;;;;;;4990966;28;20031;-79
2022/05/17 13:36:28;;;;;;;2.78;2.10;;;;;;;;;;4988766;28;20027;-82
2022/05/17 13:38:55;;;;;;;3.33;2.35;;;;;;;;;;4983232;28;20389;-80
2022/05/17 13:41:27;;;;;;;3.08;2.35;;;;;;;;;;4982498;28;20034;-81
2022/05/17 13:43:55;;;;;;;3.65;2.40;;;;;;;;;;4980166;28;20048;-79
2022/05/17 13:46:23;;;;;;;2.63;1.90;;;;;;;;;;4982522;28;20075;-83
2022/05/17 13:48:49;;;;;;;3.28;2.50;;;;;;;;;;4980390;28;20493;-82
2022/05/17 13:51:17;;;;;;;2.40;2.20;;;;;;;;;;4975318;28;20038;-78
2022/05/17 13:53:46;;;;;;;2.85;2.13;;;;;;;;;;4972401;28;20026;-79
2022/05/17 13:56:14;;;;;;;2.90;2.65;;;;;;;;;;4972684;28;20090;-80
2022/05/17 13:58:42;;;;;;;4.53;2.35;;;;;;;;;;4971216;28;20038;-78
2022/05/17 14:01:26;;;;;;;2.75;2.15;;;;;;;;;;4972829;28;20031;-79
2022/05/17 14:04:22;;;;;;;3.33;2.22;;;;;;;;;;4972594;28;20066;-81
2022/05/17 14:07:00;;;;;;;2.42;2.10;;;;;;;;;;4973107;28;20054;-80
2022/05/17 14:12:17;;;;;;;3.03;1.80;;;;;;;;;;4989141;28;20088;-79
2022/05/17 14:14:45;;;;;;;2.58;2.00;;;;;;;;;;4987001;28;20078;-80
2022/05/17 14:17:14;;;;;;;3.63;2.42;;;;;;;;;;4984049;28;20448;-81
2022/05/17 14:19:40;;;;;;;3.80;2.05;;;;;;;;;;4987986;28;20109;-80
2022/05/17 14:22:08;;;;;;;3.45;2.53;;;;;;;;;;4995558;28;20108;-80
2022/05/17 14:24:34;;;;;;;6.35;3.67;;;;;;;;;;4985682;28;20038;-84
2022/05/17 14:27:00;;;;;;;6.82;5.55;;;;;;;;;;4978352;28;20106;-84
2022/05/17 14:29:30;;;;;;;6.05;2.65;;;;;;;;;;4984607;28;20046;-83
2022/05/17 14:31:57;;;;;;;5.78;3.90;;;;;;;;;;4983987;28;20031;-83
2022/05/17 14:34:24;;;;;;;2.67;2.33;;;;;;;;;;4980854;28;20073;-83
2022/05/17 14:36:51;;;;;;;4.93;2.17;;;;;;;;;;4984505;28;20057;-83
2022/05/17 14:39:20;;;;;;;3.20;1.83;;;;;;;;;;4986088;28;20111;-81
2022/05/17 14:41:48;;;;;;;6.15;1.88;;;;;;;;;;4988307;28;20022;-83
2022/05/17 14:44:15;;;;;;;3.38;1.92;;;;;;;;;;4992148;28;20031;-82
2022/05/17 14:46:41;;;;;;;3.35;2.30;;;;;;;;;;4986339;28;20052;-83
2022/05/17 14:49:08;;;;;;;3.10;2.15;;;;;;;;;;4984482;28;20041;-87
2022/05/17 14:51:34;;;;;;;4.13;2.10;;;;;;;;;;4984527;28;20381;-85
2022/05/17 14:54:00;;;;;;;2.58;1.90;;;;;;;;;;4984957;28;20101;-83
2022/05/17 14:56:27;;;;;;;13.52;3.10;;;;;;;;;;4986000;28;20114;-80
2022/05/17 14:59:00;;;;;;;6.63;2.95;;;;;;;;;;4983708;28;20109;-85
2022/05/17 15:01:26;;;;;;;3.17;2.50;;;;;;;;;;4984226;28;20544;-87
2022/05/17 15:03:56;;;;;;;8.25;2.50;;;;;;;;;;4985655;28;20054;-82
2022/05/17 15:06:22;;;;;;;3.50;2.08;;;;;;;;;;4984743;28;20033;-82
2022/05/17 15:08:49;;;;;;;2.67;1.90;;;;;;;;;;4975094;28;20035;-87
2022/05/17 15:11:16;;;;;;;16.23;4.13;;;;;;;;;;4985981;28;20041;-80
2022/05/17 15:13:43;;;;;;;7.20;2.63;;;;;;;;;;4988621;28;20129;-84
2022/05/17 15:16:13;;;;;;;4.07;2.33;;;;;;;;;;4983426;28;20053;-86
2022/05/17 15:18:42;;;;;;;2.42;2.22;;;;;;;;;;4987246;28;20026;-81
2022/05/17 15:21:08;;;;;;;2.30;1.73;;;;;;;;;;4981595;28;20031;-84